Terminal Aerodrome Forecast
Issued by NWS

Home | Current Version | Previous Version | Text Only | Print | Product List | Glossary On
Versions: 1 2 3 4 5 6 7 8 9 10 11 12 13 14 15 16 17 18 19 20 21 22 23 24 25 26 27 28 29 30 31 32 33
000
FTUS44 KBMX 251129
TAFTOI
TAF
KTOI 251129Z 2512/2612 00000KT P6SM BKN250
     FM251400 29004KT P6SM SCT250
     FM251800 29008KT P6SM FEW035
     FM260000 29006KT P6SM BKN250=

USA.gov is the U.S. government's official web portal to all federal, state and local government web resources and services.